Time;durP1;ratioP1;P1;durP2;ratioP2;P2;SDS_P1;SDS_P2;PMS_P1;PMS_P2;Temp;Humidity;BMP_temperature;BMP_pressure;BME280_temperature;BME280_humidity;BME280_pressure;Samples;Min_cycle;Max_cycle;Signal;HPM_P1;HPM_P2
2022/10/30 00:00:08;;;;;;;50.17;27.17;;;;;;;;;;4963698;28;20167;-66
2022/10/30 00:02:33;;;;;;;49.72;27.25;;;;;;;;;;4965499;28;20018;-67
2022/10/30 00:04:59;;;;;;;46.13;27.40;;;;;;;;;;4962385;28;20031;-66
2022/10/30 00:07:24;;;;;;;46.30;26.77;;;;;;;;;;4963646;28;20029;-66
2022/10/30 00:09:49;;;;;;;42.72;26.67;;;;;;;;;;4964650;28;20555;-66
2022/10/30 00:12:15;;;;;;;49.88;26.98;;;;;;;;;;4963433;28;20079;-66
2022/10/30 00:14:40;;;;;;;42.70;26.92;;;;;;;;;;4964586;28;20095;-67
2022/10/30 00:17:06;;;;;;;44.83;27.17;;;;;;;;;;4964724;28;20034;-66
2022/10/30 00:19:31;;;;;;;42.17;26.65;;;;;;;;;;4962924;28;20035;-66
2022/10/30 00:21:57;;;;;;;42.65;26.52;;;;;;;;;;4965087;28;20038;-66
2022/10/30 00:24:23;;;;;;;45.55;26.98;;;;;;;;;;4963923;28;20059;-66
2022/10/30 00:26:48;;;;;;;46.95;27.02;;;;;;;;;;4963000;28;20500;-66
2022/10/30 00:29:14;;;;;;;45.63;25.90;;;;;;;;;;4965363;28;20493;-66
2022/10/30 00:31:40;;;;;;;42.83;26.77;;;;;;;;;;4964255;28;20496;-66
2022/10/30 00:34:06;;;;;;;53.35;27.50;;;;;;;;;;4964201;28;20031;-66
2022/10/30 00:36:32;;;;;;;42.70;26.55;;;;;;;;;;4960569;28;20030;-67
2022/10/30 00:38:57;;;;;;;44.40;26.10;;;;;;;;;;4955418;28;20121;-67
2022/10/30 00:41:23;;;;;;;44.85;25.05;;;;;;;;;;4955590;28;20031;-66
2022/10/30 00:43:50;;;;;;;45.47;26.15;;;;;;;;;;4955449;28;20027;-66
2022/10/30 00:46:35;;;;;;;41.88;26.73;;;;;;;;;;4955340;28;20504;-66
2022/10/30 00:49:07;;;;;;;44.85;26.35;;;;;;;;;;4955088;28;20043;-66
2022/10/30 00:51:32;;;;;;;41.80;26.45;;;;;;;;;;4954259;29;20035;-66
2022/10/30 00:54:01;;;;;;;40.47;25.30;;;;;;;;;;4955271;28;20033;-66
2022/10/30 00:56:27;;;;;;;44.80;24.70;;;;;;;;;;4955372;28;20473;-66
2022/10/30 00:59:00;;;;;;;41.70;24.60;;;;;;;;;;4955121;28;20034;-66
2022/10/30 01:01:28;;;;;;;38.15;23.02;;;;;;;;;;4955147;28;20417;-66
2022/10/30 01:03:56;;;;;;;37.95;23.25;;;;;;;;;;4954838;28;20027;-66
2022/10/30 01:06:23;;;;;;;38.78;23.63;;;;;;;;;;4953716;29;20393;-66
2022/10/30 01:08:50;;;;;;;36.42;21.38;;;;;;;;;;4955029;28;20031;-66
2022/10/30 01:11:16;;;;;;;36.60;20.73;;;;;;;;;;4955043;28;20098;-66
2022/10/30 01:13:44;;;;;;;34.35;20.42;;;;;;;;;;4955009;28;20070;-66
2022/10/30 01:16:28;;;;;;;40.58;22.23;;;;;;;;;;4954788;28;20031;-66
2022/10/30 01:19:23;;;;;;;39.30;21.63;;;;;;;;;;4954891;28;20046;-67
2022/10/30 01:22:30;;;;;;;34.60;20.52;;;;;;;;;;4933667;29;20047;-66
2022/10/30 01:24:58;;;;;;;38.95;20.45;;;;;;;;;;4928305;29;20047;-66
2022/10/30 01:27:29;;;;;;;36.17;22.08;;;;;;;;;;4933252;29;20047;-66
2022/10/30 01:30:04;;;;;;;36.95;22.27;;;;;;;;;;4933536;29;20122;-66
2022/10/30 01:33:00;;;;;;;45.28;23.33;;;;;;;;;;4933287;29;20040;-66
2022/10/30 01:35:31;;;;;;;40.50;23.77;;;;;;;;;;4917363;29;20031;-66
2022/10/30 01:38:05;;;;;;;42.80;22.90;;;;;;;;;;4933548;29;20032;-66
2022/10/30 01:40:32;;;;;;;38.40;22.38;;;;;;;;;;4933706;29;20056;-66
2022/10/30 01:42:58;;;;;;;37.15;22.95;;;;;;;;;;4933554;29;20074;-66
2022/10/30 01:45:42;;;;;;;40.55;22.20;;;;;;;;;;4933157;29;20040;-66
2022/10/30 01:48:21;;;;;;;29.85;19.85;;;;;;;;;;4933376;29;20039;-66
2022/10/30 01:50:56;;;;;;;32.65;19.80;;;;;;;;;;4933407;29;20160;-66
2022/10/30 01:53:36;;;;;;;38.50;21.67;;;;;;;;;;4933418;29;20063;-66
2022/10/30 01:56:17;;;;;;;42.95;22.27;;;;;;;;;;4933285;29;20084;-66
2022/10/30 01:58:52;;;;;;;37.40;20.95;;;;;;;;;;4948491;29;20043;-68
2022/10/30 02:01:19;;;;;;;31.63;19.25;;;;;;;;;;4954420;28;20027;-66
2022/10/30 02:03:45;;;;;;;37.17;19.80;;;;;;;;;;4954571;28;20027;-66
2022/10/30 02:06:11;;;;;;;38.47;20.33;;;;;;;;;;4954631;28;20031;-66
2022/10/30 02:08:36;;;;;;;29.60;20.15;;;;;;;;;;4954406;28;20074;-66
2022/10/30 02:11:03;;;;;;;37.92;19.98;;;;;;;;;;4954478;28;20034;-66
2022/10/30 02:13:28;;;;;;;34.33;20.00;;;;;;;;;;4954398;28;20031;-66
2022/10/30 02:15:54;;;;;;;30.58;19.05;;;;;;;;;;4954202;28;20037;-66
2022/10/30 02:18:20;;;;;;;37.15;19.75;;;;;;;;;;4954520;28;20027;-67
2022/10/30 02:20:45;;;;;;;32.88;19.75;;;;;;;;;;4954490;28;20366;-66
2022/10/30 02:23:17;;;;;;;36.25;19.38;;;;;;;;;;4954571;28;20031;-66
2022/10/30 02:25:43;;;;;;;32.97;18.83;;;;;;;;;;4954457;28;20023;-66
2022/10/30 02:28:09;;;;;;;29.23;18.63;;;;;;;;;;4973539;28;20038;-66
2022/10/30 02:30:34;;;;;;;32.03;18.27;;;;;;;;;;4991423;28;20404;-66
2022/10/30 02:33:00;;;;;;;35.13;20.50;;;;;;;;;;4996324;28;20476;-67
2022/10/30 02:35:25;;;;;;;31.13;18.92;;;;;;;;;;4996594;28;20022;-66
2022/10/30 02:37:51;;;;;;;35.00;19.98;;;;;;;;;;4996650;28;20426;-66
2022/10/30 02:40:16;;;;;;;32.22;19.02;;;;;;;;;;4996418;28;20029;-66
2022/10/30 02:42:42;;;;;;;35.30;19.65;;;;;;;;;;4996529;28;20054;-67
2022/10/30 02:45:08;;;;;;;32.72;20.83;;;;;;;;;;4996279;28;20490;-67
2022/10/30 02:47:33;;;;;;;30.95;19.35;;;;;;;;;;4988328;28;20050;-68
2022/10/30 02:49:59;;;;;;;29.85;18.80;;;;;;;;;;4966708;28;20058;-67
2022/10/30 02:52:24;;;;;;;30.30;19.58;;;;;;;;;;4965332;28;20373;-68
2022/10/30 02:54:50;;;;;;;28.48;19.15;;;;;;;;;;4965628;28;20023;-66
2022/10/30 02:57:15;;;;;;;31.48;19.67;;;;;;;;;;4966505;28;20371;-66
2022/10/30 02:59:40;;;;;;;28.88;18.40;;;;;;;;;;4963185;28;20485;-66
2022/10/30 03:02:06;;;;;;;26.85;18.27;;;;;;;;;;4966187;28;20022;-66
2022/10/30 03:04:31;;;;;;;26.05;17.17;;;;;;;;;;4965811;28;20057;-66
2022/10/30 03:06:57;;;;;;;25.60;17.85;;;;;;;;;;4964666;28;20122;-67
2022/10/30 03:09:22;;;;;;;26.30;18.23;;;;;;;;;;4966524;28;20019;-66
2022/10/30 03:11:48;;;;;;;27.75;17.77;;;;;;;;;;4965151;28;20038;-66
2022/10/30 03:14:13;;;;;;;30.40;19.88;;;;;;;;;;4964790;28;20033;-66
2022/10/30 03:16:39;;;;;;;30.08;18.67;;;;;;;;;;4966393;28;20496;-66
2022/10/30 03:19:04;;;;;;;25.42;18.27;;;;;;;;;;4967248;28;20066;-66
2022/10/30 03:21:30;;;;;;;25.23;18.42;;;;;;;;;;4964651;28;20031;-66
2022/10/30 03:23:55;;;;;;;33.08;19.00;;;;;;;;;;4966203;28;20465;-66
2022/10/30 03:26:21;;;;;;;28.42;18.17;;;;;;;;;;4964696;28;20469;-66
2022/10/30 03:28:47;;;;;;;28.10;18.90;;;;;;;;;;4966384;28;20432;-66
2022/10/30 03:31:16;;;;;;;26.48;18.75;;;;;;;;;;4964015;28;20469;-66
2022/10/30 03:33:42;;;;;;;31.70;18.58;;;;;;;;;;4965505;28;20491;-66
2022/10/30 03:36:10;;;;;;;31.40;19.13;;;;;;;;;;4965420;28;20020;-67
2022/10/30 03:38:36;;;;;;;25.67;17.88;;;;;;;;;;4964015;28;20396;-67
2022/10/30 03:41:02;;;;;;;29.67;18.17;;;;;;;;;;4965271;28;20022;-66
2022/10/30 03:43:27;;;;;;;27.15;17.65;;;;;;;;;;4965095;28;20043;-66
2022/10/30 03:45:55;;;;;;;29.17;17.60;;;;;;;;;;4963738;28;20023;-66
2022/10/30 03:48:25;;;;;;;29.20;18.35;;;;;;;;;;4965453;28;20161;-66
2022/10/30 03:50:52;;;;;;;;;;;;;;;;;;4966073;28;20362;-67
2022/10/30 03:53:17;;;;;;;25.48;17.02;;;;;;;;;;4963881;28;19914;-66
2022/10/30 03:55:43;;;;;;;26.55;17.60;;;;;;;;;;4964750;28;20033;-66
2022/10/30 03:58:08;;;;;;;27.20;17.35;;;;;;;;;;4965172;28;20023;-66
2022/10/30 04:00:35;;;;;;;31.42;18.25;;;;;;;;;;4963444;28;20039;-66
2022/10/30 04:03:01;;;;;;;29.92;17.95;;;;;;;;;;4965058;28;20023;-66
2022/10/30 04:05:28;;;;;;;27.95;17.67;;;;;;;;;;4964705;28;20023;-66
2022/10/30 04:07:58;;;;;;;27.17;18.63;;;;;;;;;;4963393;28;20106;-66
2022/10/30 04:10:24;;;;;;;33.58;18.77;;;;;;;;;;4965847;28;20102;-67
2022/10/30 04:12:50;;;;;;;35.10;18.27;;;;;;;;;;4963824;28;20050;-66
2022/10/30 04:15:16;;;;;;;31.40;17.70;;;;;;;;;;4965144;28;20022;-66
2022/10/30 04:17:48;;;;;;;27.08;17.23;;;;;;;;;;4963776;28;20027;-66
2022/10/30 04:20:13;;;;;;;40.78;20.88;;;;;;;;;;4963142;28;20142;-66
2022/10/30 04:22:39;;;;;;;31.40;19.27;;;;;;;;;;4964985;28;20461;-67
2022/10/30 04:25:05;;;;;;;30.40;17.35;;;;;;;;;;4963839;28;20066;-66
2022/10/30 04:27:30;;;;;;;33.30;19.05;;;;;;;;;;4965476;28;20051;-66
2022/10/30 04:29:56;;;;;;;31.30;17.90;;;;;;;;;;4962987;28;20338;-66
2022/10/30 04:32:21;;;;;;;37.28;17.92;;;;;;;;;;4964584;28;20023;-66
2022/10/30 04:34:47;;;;;;;30.33;17.60;;;;;;;;;;4963945;28;20429;-67
2022/10/30 04:37:12;;;;;;;32.15;18.65;;;;;;;;;;4955673;28;20374;-66
2022/10/30 04:39:37;;;;;;;34.45;19.73;;;;;;;;;;4955449;28;20035;-66
2022/10/30 04:42:03;;;;;;;34.45;21.35;;;;;;;;;;4955580;28;20038;-66
2022/10/30 04:44:28;;;;;;;36.92;19.83;;;;;;;;;;4955570;28;20096;-66
2022/10/30 04:46:54;;;;;;;32.33;16.73;;;;;;;;;;4954050;29;20027;-66
2022/10/30 04:49:19;;;;;;;28.38;16.85;;;;;;;;;;4955493;28;20043;-66
2022/10/30 04:51:46;;;;;;;28.90;17.27;;;;;;;;;;4955454;28;20030;-66
2022/10/30 04:54:11;;;;;;;33.40;16.90;;;;;;;;;;4954630;28;20465;-67
2022/10/30 04:56:37;;;;;;;26.58;16.55;;;;;;;;;;4955235;28;20027;-66
2022/10/30 04:59:03;;;;;;;32.40;16.95;;;;;;;;;;4955398;28;20039;-66
2022/10/30 05:01:29;;;;;;;28.17;17.27;;;;;;;;;;4955163;28;20110;-66
2022/10/30 05:03:57;;;;;;;27.13;17.23;;;;;;;;;;4955125;28;20170;-66
2022/10/30 05:06:29;;;;;;;27.20;18.10;;;;;;;;;;4955180;28;20397;-66
2022/10/30 05:08:55;;;;;;;28.33;17.55;;;;;;;;;;4954723;28;20035;-66
2022/10/30 05:11:20;;;;;;;34.00;20.05;;;;;;;;;;4955143;28;20047;-66
2022/10/30 05:13:46;;;;;;;39.65;23.70;;;;;;;;;;4955097;28;20059;-66
2022/10/30 05:16:11;;;;;;;38.22;24.90;;;;;;;;;;4955077;28;20110;-66
2022/10/30 05:18:37;;;;;;;39.65;23.15;;;;;;;;;;4955079;28;20071;-66
2022/10/30 05:21:03;;;;;;;36.92;22.35;;;;;;;;;;4955182;28;20107;-66
2022/10/30 05:23:28;;;;;;;38.70;23.33;;;;;;;;;;4954736;28;20023;-67
2022/10/30 05:25:55;;;;;;;33.70;20.55;;;;;;;;;;4954691;28;20055;-68
2022/10/30 05:28:20;;;;;;;32.13;20.42;;;;;;;;;;4965751;28;20047;-66
2022/10/30 05:30:45;;;;;;;35.90;20.17;;;;;;;;;;4974102;28;20404;-67
2022/10/30 05:33:11;;;;;;;33.80;22.33;;;;;;;;;;4973999;28;20066;-66
2022/10/30 05:35:38;;;;;;;37.25;20.65;;;;;;;;;;4974040;28;20138;-66
2022/10/30 05:38:05;;;;;;;38.30;19.83;;;;;;;;;;4973610;28;20059;-66
2022/10/30 05:40:32;;;;;;;35.25;18.38;;;;;;;;;;4974364;28;20023;-66
2022/10/30 05:42:58;;;;;;;28.20;18.02;;;;;;;;;;4974216;28;20392;-66
2022/10/30 05:45:24;;;;;;;33.30;18.48;;;;;;;;;;4974093;28;20030;-67
2022/10/30 05:48:03;;;;;;;32.28;18.65;;;;;;;;;;4973990;28;20537;-66
2022/10/30 05:50:29;;;;;;;29.00;17.13;;;;;;;;;;4974152;28;20093;-66
2022/10/30 05:52:56;;;;;;;29.27;18.80;;;;;;;;;;4973969;28;20034;-66
2022/10/30 05:55:22;;;;;;;31.08;17.80;;;;;;;;;;4974025;28;20089;-66
2022/10/30 05:57:47;;;;;;;35.83;18.40;;;;;;;;;;4973951;28;20472;-66
2022/10/30 06:00:13;;;;;;;28.90;18.20;;;;;;;;;;4973887;28;20031;-69
2022/10/30 06:02:39;;;;;;;29.65;17.20;;;;;;;;;;4973923;28;20153;-69
2022/10/30 06:05:04;;;;;;;30.50;17.13;;;;;;;;;;4973899;28;20115;-66
2022/10/30 06:07:30;;;;;;;30.88;17.90;;;;;;;;;;4976089;28;20034;-66
2022/10/30 06:09:55;;;;;;;30.90;18.10;;;;;;;;;;4977658;28;20030;-66
2022/10/30 06:12:21;;;;;;;32.33;18.17;;;;;;;;;;4977771;28;20030;-67
2022/10/30 06:14:46;;;;;;;30.35;19.42;;;;;;;;;;4977625;28;20110;-66
2022/10/30 06:17:12;;;;;;;34.47;19.20;;;;;;;;;;4977586;28;20468;-66
2022/10/30 06:19:37;;;;;;;31.05;19.02;;;;;;;;;;4977566;28;20114;-66
2022/10/30 06:22:02;;;;;;;38.72;20.13;;;;;;;;;;4977237;28;20135;-67
2022/10/30 06:24:28;;;;;;;36.20;20.92;;;;;;;;;;4976242;28;20081;-67
2022/10/30 06:26:53;;;;;;;38.03;21.75;;;;;;;;;;4977216;28;20053;-66
2022/10/30 06:29:19;;;;;;;33.40;19.92;;;;;;;;;;4996209;28;20435;-66
2022/10/30 06:31:44;;;;;;;37.72;21.30;;;;;;;;;;4996775;28;20030;-66
2022/10/30 06:34:10;;;;;;;37.28;22.70;;;;;;;;;;4996701;28;20029;-67
2022/10/30 06:36:35;;;;;;;42.33;22.63;;;;;;;;;;4996418;28;20037;-66
2022/10/30 06:39:01;;;;;;;43.88;24.25;;;;;;;;;;4996584;28;20037;-66
2022/10/30 06:41:26;;;;;;;47.05;25.38;;;;;;;;;;4996502;28;20026;-66
2022/10/30 06:43:52;;;;;;;40.38;24.25;;;;;;;;;;4996392;28;20137;-66
2022/10/30 06:46:17;;;;;;;43.90;25.15;;;;;;;;;;4996380;28;20372;-66
2022/10/30 06:48:43;;;;;;;41.88;24.60;;;;;;;;;;4994092;28;20172;-66
2022/10/30 06:51:09;;;;;;;39.15;24.88;;;;;;;;;;4995820;28;20030;-66
2022/10/30 06:53:34;;;;;;;43.28;23.98;;;;;;;;;;4996266;28;20146;-66
2022/10/30 06:56:02;;;;;;;38.38;23.15;;;;;;;;;;4996062;28;20472;-66
2022/10/30 06:58:28;;;;;;;39.28;22.83;;;;;;;;;;4996076;28;20058;-66
2022/10/30 07:00:54;;;;;;;37.20;22.60;;;;;;;;;;4988413;28;20539;-66
2022/10/30 07:03:20;;;;;;;36.97;22.40;;;;;;;;;;4976547;28;20070;-66
2022/10/30 07:05:46;;;;;;;37.50;21.77;;;;;;;;;;4970114;28;20062;-66
2022/10/30 07:08:11;;;;;;;37.90;21.77;;;;;;;;;;4956960;28;20035;-67
2022/10/30 07:10:37;;;;;;;36.55;22.83;;;;;;;;;;4957056;28;20037;-66
2022/10/30 07:13:03;;;;;;;39.40;22.35;;;;;;;;;;4957064;28;20061;-66
2022/10/30 07:15:28;;;;;;;42.45;23.40;;;;;;;;;;4956929;28;20078;-66
2022/10/30 07:17:55;;;;;;;37.25;24.13;;;;;;;;;;4956546;28;20031;-66
2022/10/30 07:20:21;;;;;;;34.80;21.85;;;;;;;;;;4956786;28;20091;-66
2022/10/30 07:22:47;;;;;;;36.17;21.77;;;;;;;;;;4957002;28;20480;-66
2022/10/30 07:25:12;;;;;;;35.17;21.02;;;;;;;;;;4957004;28;20031;-66
2022/10/30 07:27:46;;;;;;;35.17;21.23;;;;;;;;;;4961904;28;20035;-71
2022/10/30 07:30:13;;;;;;;35.80;21.27;;;;;;;;;;4976037;28;20097;-66
2022/10/30 07:32:38;;;;;;;33.13;20.73;;;;;;;;;;4976270;28;20389;-66
2022/10/30 07:35:05;;;;;;;38.03;20.80;;;;;;;;;;4975639;28;20022;-78
2022/10/30 07:37:30;;;;;;;35.60;21.60;;;;;;;;;;4975898;28;20098;-68
2022/10/30 07:39:55;;;;;;;36.08;21.45;;;;;;;;;;4975997;28;20117;-71
2022/10/30 07:42:21;;;;;;;35.15;20.73;;;;;;;;;;4976078;28;20033;-66
2022/10/30 07:44:46;;;;;;;31.23;20.90;;;;;;;;;;4975800;28;20379;-66
2022/10/30 07:47:12;;;;;;;36.80;21.05;;;;;;;;;;4975691;28;20038;-66
2022/10/30 07:49:37;;;;;;;43.38;27.40;;;;;;;;;;4975368;28;20027;-73
2022/10/30 07:52:03;;;;;;;49.22;31.85;;;;;;;;;;4975700;28;20027;-66
2022/10/30 07:54:29;;;;;;;41.72;24.70;;;;;;;;;;4975401;28;20035;-66
2022/10/30 07:56:54;;;;;;;37.30;23.60;;;;;;;;;;4975623;28;20043;-68
2022/10/30 07:59:19;;;;;;;36.60;23.77;;;;;;;;;;4975649;28;20161;-65
2022/10/30 08:01:45;;;;;;;38.58;24.02;;;;;;;;;;4975276;28;20397;-66
2022/10/30 08:04:12;;;;;;;36.67;23.88;;;;;;;;;;4975134;28;20037;-78
2022/10/30 08:06:38;;;;;;;39.25;23.92;;;;;;;;;;4975432;28;20102;-65
2022/10/30 08:09:04;;;;;;;34.70;20.45;;;;;;;;;;4975222;28;20030;-68
2022/10/30 08:11:30;;;;;;;43.35;23.45;;;;;;;;;;4975133;28;20027;-77
2022/10/30 08:13:55;;;;;;;41.30;23.00;;;;;;;;;;4975096;28;20070;-66
2022/10/30 08:16:21;;;;;;;37.35;22.30;;;;;;;;;;4975069;28;20479;-70
2022/10/30 08:18:46;;;;;;;38.80;22.98;;;;;;;;;;4974923;28;20026;-73
2022/10/30 08:21:12;;;;;;;41.05;25.13;;;;;;;;;;4975060;28;20030;-71
2022/10/30 08:23:37;;;;;;;45.45;26.52;;;;;;;;;;4974944;28;20114;-65
2022/10/30 08:26:04;;;;;;;46.47;27.52;;;;;;;;;;4974846;28;20029;-65
2022/10/30 08:28:30;;;;;;;51.75;28.23;;;;;;;;;;4974266;28;20035;-75
2022/10/30 08:30:57;;;;;;;43.45;27.42;;;;;;;;;;4974476;28;20057;-77
2022/10/30 08:33:23;;;;;;;52.15;26.60;;;;;;;;;;4974409;28;20029;-70
2022/10/30 08:35:55;;;;;;;40.15;24.30;;;;;;;;;;4974792;28;20026;-77
2022/10/30 08:38:21;;;;;;;44.33;25.80;;;;;;;;;;4974334;28;20034;-67
2022/10/30 08:40:47;;;;;;;41.17;24.00;;;;;;;;;;4974719;28;20061;-65
2022/10/30 08:43:13;;;;;;;39.40;23.40;;;;;;;;;;4974585;28;20117;-67
2022/10/30 08:45:39;;;;;;;39.67;23.88;;;;;;;;;;4974446;28;20380;-68
2022/10/30 08:48:05;;;;;;;35.28;22.33;;;;;;;;;;4974496;28;20022;-75
2022/10/30 08:50:32;;;;;;;40.03;23.20;;;;;;;;;;4974301;28;20073;-67
2022/10/30 08:53:06;;;;;;;43.55;24.60;;;;;;;;;;4974216;28;20026;-68
2022/10/30 08:55:32;;;;;;;36.58;22.58;;;;;;;;;;4974341;28;20519;-77
2022/10/30 08:57:58;;;;;;;43.50;23.42;;;;;;;;;;4974447;28;20034;-67
2022/10/30 09:00:24;;;;;;;33.67;19.10;;;;;;;;;;4974257;28;20054;-72
2022/10/30 09:02:50;;;;;;;38.38;25.40;;;;;;;;;;4974291;28;20053;-68
2022/10/30 09:05:15;;;;;;;33.10;22.30;;;;;;;;;;4974184;28;20037;-66
2022/10/30 09:07:41;;;;;;;30.58;18.20;;;;;;;;;;4973925;28;20058;-66
2022/10/30 09:10:07;;;;;;;32.75;17.67;;;;;;;;;;4974020;28;20035;-66
2022/10/30 09:12:33;;;;;;;31.00;19.23;;;;;;;;;;4974327;28;20031;-66
2022/10/30 09:14:58;;;;;;;31.00;17.90;;;;;;;;;;4974044;28;20058;-66
2022/10/30 09:17:24;;;;;;;28.15;17.63;;;;;;;;;;4974239;28;20019;-66
2022/10/30 09:19:49;;;;;;;28.25;18.42;;;;;;;;;;4974109;28;20035;-67
2022/10/30 09:22:14;;;;;;;30.20;18.00;;;;;;;;;;4974058;28;20045;-66
2022/10/30 09:24:40;;;;;;;38.42;18.13;;;;;;;;;;4974128;28;20368;-68
2022/10/30 09:27:06;;;;;;;24.08;16.75;;;;;;;;;;4974560;28;20120;-67
2022/10/30 09:29:31;;;;;;;29.70;17.55;;;;;;;;;;4993107;28;20476;-66
2022/10/30 09:31:58;;;;;;;33.53;17.80;;;;;;;;;;4993372;28;20165;-66
2022/10/30 09:34:24;;;;;;;24.73;15.27;;;;;;;;;;4993152;28;20080;-67
2022/10/30 09:36:49;;;;;;;25.27;15.02;;;;;;;;;;4993489;28;20117;-67
2022/10/30 09:39:15;;;;;;;25.23;14.10;;;;;;;;;;4993035;28;20468;-66
2022/10/30 09:42:12;;;;;;;25.58;14.70;;;;;;;;;;4993000;28;20037;-66
2022/10/30 09:44:40;;;;;;;19.60;12.57;;;;;;;;;;4993180;28;20066;-66
2022/10/30 09:47:28;;;;;;;20.73;12.57;;;;;;;;;;4993287;28;20022;-66
2022/10/30 09:50:12;;;;;;;19.75;12.30;;;;;;;;;;4993115;28;20038;-66
2022/10/30 09:52:59;;;;;;;17.92;12.10;;;;;;;;;;4993115;28;20487;-66
2022/10/30 09:55:50;;;;;;;19.95;12.50;;;;;;;;;;4993016;28;20034;-66
2022/10/30 09:58:32;;;;;;;21.50;12.95;;;;;;;;;;4993071;28;20484;-78
2022/10/30 10:01:21;;;;;;;20.08;11.13;;;;;;;;;;4992930;28;20066;-66
2022/10/30 10:04:22;;;;;;;20.27;13.40;;;;;;;;;;4993050;28;20431;-66
2022/10/30 10:07:13;;;;;;;26.08;13.57;;;;;;;;;;4992933;28;20026;-66
2022/10/30 10:09:40;;;;;;;21.83;12.98;;;;;;;;;;4989997;28;20487;-66
2022/10/30 10:12:17;;;;;;;19.45;12.88;;;;;;;;;;4992921;28;20052;-66
2022/10/30 10:14:45;;;;;;;21.05;12.63;;;;;;;;;;4992842;28;20105;-66
2022/10/30 10:17:23;;;;;;;20.35;12.85;;;;;;;;;;4993034;28;20040;-66
2022/10/30 10:19:58;;;;;;;21.67;12.32;;;;;;;;;;4992859;28;20022;-67
2022/10/30 10:22:37;;;;;;;21.63;13.13;;;;;;;;;;4992965;28;20026;-66
2022/10/30 10:25:10;;;;;;;29.02;14.05;;;;;;;;;;4992856;28;20430;-66
2022/10/30 10:27:47;;;;;;;22.27;13.00;;;;;;;;;;4992169;28;20475;-66
2022/10/30 10:30:16;;;;;;;23.00;12.80;;;;;;;;;;4992891;28;20069;-71
2022/10/30 10:32:48;;;;;;;21.87;12.23;;;;;;;;;;4992579;28;20101;-67
2022/10/30 10:35:45;;;;;;;19.92;12.50;;;;;;;;;;4992777;28;20019;-67
2022/10/30 10:38:21;;;;;;;20.33;12.32;;;;;;;;;;4978970;28;20390;-66
2022/10/30 10:41:13;;;;;;;21.85;12.55;;;;;;;;;;4966587;28;20042;-66
2022/10/30 10:44:00;;;;;;;20.80;12.63;;;;;;;;;;4961948;28;20393;-66
2022/10/30 10:46:35;;;;;;;19.50;12.73;;;;;;;;;;4963128;28;20027;-75
2022/10/30 10:49:31;;;;;;;23.33;12.82;;;;;;;;;;4962331;28;20473;-70
2022/10/30 10:52:02;;;;;;;21.33;12.95;;;;;;;;;;4962025;28;20031;-66
2022/10/30 10:54:35;;;;;;;22.33;12.85;;;;;;;;;;4964628;28;20106;-67
2022/10/30 10:57:03;;;;;;;21.70;12.90;;;;;;;;;;4965120;28;20490;-66
2022/10/30 10:59:37;;;;;;;21.75;12.68;;;;;;;;;;4966623;28;20449;-67
2022/10/30 11:02:44;;;;;;;21.75;11.82;;;;;;;;;;4965693;28;20034;-66
2022/10/30 11:05:12;;;;;;;18.38;12.65;;;;;;;;;;4942789;29;20031;-67
2022/10/30 11:07:45;;;;;;;23.70;12.80;;;;;;;;;;4943933;29;20031;-66
2022/10/30 11:10:13;;;;;;;19.02;12.73;;;;;;;;;;4943728;29;20046;-66
2022/10/30 11:12:39;;;;;;;23.33;14.32;;;;;;;;;;4941710;29;20035;-66
2022/10/30 11:15:30;;;;;;;23.58;13.70;;;;;;;;;;4936462;29;20497;-71
2022/10/30 11:18:02;;;;;;;21.95;12.82;;;;;;;;;;4916631;29;20036;-66
2022/10/30 11:21:00;;;;;;;23.00;14.48;;;;;;;;;;4929088;29;20044;-67
2022/10/30 11:23:40;;;;;;;21.80;13.70;;;;;;;;;;4928983;29;20138;-67
2022/10/30 11:26:17;;;;;;;20.88;12.82;;;;;;;;;;4935217;29;20043;-67
2022/10/30 11:28:53;;;;;;;24.50;13.35;;;;;;;;;;4949154;29;20051;-66
2022/10/30 11:31:33;;;;;;;22.25;12.48;;;;;;;;;;4947195;29;20035;-66
2022/10/30 11:34:13;;;;;;;21.60;11.90;;;;;;;;;;4934967;29;20398;-66
2022/10/30 11:36:38;;;;;;;23.35;12.57;;;;;;;;;;4935378;29;20082;-67
2022/10/30 11:39:23;;;;;;;23.77;12.02;;;;;;;;;;4945104;29;20039;-67
2022/10/30 11:42:17;;;;;;;24.65;13.85;;;;;;;;;;4956216;28;20536;-68
2022/10/30 11:44:50;;;;;;;22.63;13.00;;;;;;;;;;4956274;28;20027;-67
2022/10/30 11:47:20;;;;;;;21.85;13.55;;;;;;;;;;4956333;28;20102;-66
2022/10/30 11:49:55;;;;;;;27.58;14.45;;;;;;;;;;4956103;28;20027;-67
2022/10/30 11:52:23;;;;;;;25.70;15.23;;;;;;;;;;4956245;28;20031;-68
2022/10/30 11:55:24;;;;;;;25.27;14.65;;;;;;;;;;4955543;28;20107;-67
2022/10/30 11:57:53;;;;;;;24.50;14.10;;;;;;;;;;4955886;28;20453;-66
2022/10/30 12:00:25;;;;;;;28.38;14.18;;;;;;;;;;4956168;28;20019;-70
2022/10/30 12:02:53;;;;;;;23.05;13.70;;;;;;;;;;4955826;28;20031;-67
2022/10/30 12:05:24;;;;;;;29.40;13.05;;;;;;;;;;4954754;28;20054;-67
2022/10/30 12:08:05;;;;;;;22.42;12.88;;;;;;;;;;4955449;28;20081;-66
2022/10/30 12:10:32;;;;;;;26.15;13.02;;;;;;;;;;4955536;28;20035;-67
2022/10/30 12:13:03;;;;;;;23.90;12.38;;;;;;;;;;4955636;28;20446;-67
2022/10/30 12:15:31;;;;;;;24.05;12.30;;;;;;;;;;4955714;28;20027;-76
2022/10/30 12:18:07;;;;;;;23.45;12.40;;;;;;;;;;4955570;28;20023;-67
2022/10/30 12:20:36;;;;;;;24.95;12.82;;;;;;;;;;4964390;28;20074;-70
2022/10/30 12:23:16;;;;;;;25.07;12.37;;;;;;;;;;4968291;28;20030;-66
2022/10/30 12:25:46;;;;;;;27.52;12.30;;;;;;;;;;4963149;28;20057;-67
2022/10/30 12:28:14;;;;;;;;;;;;;;;;;;4963696;28;20051;-66
2022/10/30 12:31:02;;;;;;;20.00;12.27;;;;;;;;;;4963550;28;19974;-66
2022/10/30 12:33:54;;;;;;;24.10;11.55;;;;;;;;;;4964560;28;20058;-70
2022/10/30 12:36:24;;;;;;;22.42;11.85;;;;;;;;;;4965738;28;20105;-66
2022/10/30 12:38:55;;;;;;;22.48;11.77;;;;;;;;;;4967341;28;20019;-67
2022/10/30 12:41:39;;;;;;;22.67;12.45;;;;;;;;;;4962997;28;20430;-67
2022/10/30 12:44:41;;;;;;;18.42;11.43;;;;;;;;;;4963336;28;20019;-67
2022/10/30 12:47:22;;;;;;;23.60;11.68;;;;;;;;;;4954942;28;20061;-67
2022/10/30 12:49:51;;;;;;;21.60;12.82;;;;;;;;;;4955214;28;20122;-66
2022/10/30 12:52:40;;;;;;;25.13;13.82;;;;;;;;;;4954961;28;20465;-66
2022/10/30 12:55:21;;;;;;;22.45;13.80;;;;;;;;;;4954743;28;20043;-66
2022/10/30 12:58:22;;;;;;;25.50;14.10;;;;;;;;;;4954947;28;20106;-67
2022/10/30 13:00:57;;;;;;;24.58;14.50;;;;;;;;;;4953410;28;20837;-67
2022/10/30 13:03:35;;;;;;;27.13;14.68;;;;;;;;;;4955123;28;20031;-66
2022/10/30 13:06:08;;;;;;;23.88;13.52;;;;;;;;;;4954827;28;20152;-67
2022/10/30 13:08:37;;;;;;;22.25;13.10;;;;;;;;;;4969159;28;20082;-67
2022/10/30 13:11:13;;;;;;;26.38;13.85;;;;;;;;;;4954562;28;20504;-70
2022/10/30 13:13:44;;;;;;;26.27;13.68;;;;;;;;;;4954650;28;20031;-68
2022/10/30 13:16:16;;;;;;;24.60;14.07;;;;;;;;;;4954123;28;20161;-67
2022/10/30 13:18:41;;;;;;;21.52;12.65;;;;;;;;;;4954776;28;20032;-66
2022/10/30 13:21:09;;;;;;;25.58;13.88;;;;;;;;;;4954247;28;20027;-67
2022/10/30 13:23:57;;;;;;;25.77;12.05;;;;;;;;;;4954784;28;20039;-78
2022/10/30 13:27:04;;;;;;;26.85;12.65;;;;;;;;;;4954533;28;20058;-80
2022/10/30 13:29:46;;;;;;;26.00;12.32;;;;;;;;;;4923962;29;20610;-78
2022/10/30 13:32:23;;;;;;;24.17;11.70;;;;;;;;;;4927312;29;20134;-79
2022/10/30 13:35:27;;;;;;;23.33;11.25;;;;;;;;;;4932998;29;20032;-67
2022/10/30 13:38:02;;;;;;;24.85;12.55;;;;;;;;;;4929606;29;20446;-67
2022/10/30 13:40:38;;;;;;;26.15;12.52;;;;;;;;;;4933341;29;20588;-67
2022/10/30 13:43:03;;;;;;;26.77;12.57;;;;;;;;;;4932859;29;20039;-68
2022/10/30 13:46:07;;;;;;;19.70;12.88;;;;;;;;;;4933158;29;20043;-67
2022/10/30 13:49:04;;;;;;;25.08;12.55;;;;;;;;;;4858048;29;20128;-68
2022/10/30 13:51:41;;;;;;;19.70;11.95;;;;;;;;;;4858018;29;20512;-66
2022/10/30 13:54:22;;;;;;;34.03;17.90;;;;;;;;;;4858316;29;20044;-66
2022/10/30 13:56:49;;;;;;;31.30;13.40;;;;;;;;;;4857775;29;20059;-66
2022/10/30 13:59:39;;;;;;;27.27;12.50;;;;;;;;;;4857819;29;20132;-66
2022/10/30 14:02:07;;;;;;;;;;;;;;;;;;4858497;29;20041;-66
2022/10/30 14:04:46;;;;;;;20.63;11.20;;;;;;;;;;4876880;29;19950;-75
2022/10/30 14:07:23;;;;;;;24.25;11.80;;;;;;;;;;4914145;29;20032;-67
2022/10/30 14:10:09;;;;;;;21.55;12.18;;;;;;;;;;4913943;29;20032;-67
2022/10/30 14:12:48;;;;;;;21.90;12.82;;;;;;;;;;4914170;29;20450;-67
2022/10/30 14:15:19;;;;;;;35.28;13.68;;;;;;;;;;4914169;29;20083;-74
2022/10/30 14:18:12;;;;;;;30.35;12.52;;;;;;;;;;4914081;29;20044;-67
2022/10/30 14:20:39;;;;;;;21.23;11.57;;;;;;;;;;4913918;29;20044;-80
2022/10/30 14:23:07;;;;;;;25.95;12.63;;;;;;;;;;4917248;28;20032;-67
2022/10/30 14:25:33;;;;;;;23.25;11.70;;;;;;;;;;4973314;28;20027;-67
2022/10/30 14:27:59;;;;;;;24.60;12.35;;;;;;;;;;4974978;28;20046;-82
2022/10/30 14:30:26;;;;;;;22.95;11.93;;;;;;;;;;4977371;28;20038;-70
2022/10/30 14:32:53;;;;;;;24.85;11.30;;;;;;;;;;4977127;28;20110;-66
2022/10/30 14:35:33;;;;;;;20.17;10.55;;;;;;;;;;4977108;28;20433;-77
2022/10/30 14:38:08;;;;;;;16.30;10.15;;;;;;;;;;4977064;28;20078;-69